createdAt,value
2022-11-17T00:00:30.709Z,3.31
2022-11-17T00:05:39.569Z,3.27
2022-11-17T00:10:44.312Z,3.22
2022-11-17T00:15:47.725Z,3.19
2022-11-17T00:21:09.405Z,3.16
2022-11-17T00:26:23.356Z,3.11
2022-11-17T00:31:46.622Z,3.05
2022-11-17T00:36:51.543Z,3.06
2022-11-17T00:41:54.447Z,3.01
2022-11-17T00:46:57.490Z,2.92
2022-11-17T00:52:00.954Z,2.85
2022-11-17T00:57:04.200Z,2.77
2022-11-17T01:02:07.015Z,2.70
2022-11-17T01:07:09.925Z,2.66
2022-11-17T01:12:13.574Z,2.70
2022-11-17T01:17:17.630Z,2.69
2022-11-17T01:22:20.457Z,2.64
2022-11-17T01:27:25.959Z,2.58
2022-11-17T01:32:29.236Z,2.53
2022-11-17T01:37:34.070Z,2.48
2022-11-17T01:42:37.862Z,2.40
2022-11-17T01:47:54.591Z,2.40
2022-11-17T01:53:03.007Z,2.39
2022-11-17T01:58:08.989Z,2.36
2022-11-17T02:03:12.864Z,2.29
2022-11-17T02:08:17.218Z,2.29
2022-11-17T02:13:23.185Z,2.32
2022-11-17T02:18:26.341Z,2.29
2022-11-17T02:24:11.265Z,2.24
2022-11-17T02:29:37.099Z,2.19
2022-11-17T02:35:13.815Z,2.19
2022-11-17T02:40:23.830Z,2.20
2022-11-17T02:45:35.886Z,2.17
2022-11-17T02:50:38.818Z,2.16
2022-11-17T02:55:41.830Z,2.18
2022-11-17T03:01:14.263Z,2.22
2022-11-17T03:06:36.007Z,2.19
2022-11-17T03:12:55.696Z,2.18
2022-11-17T03:18:12.087Z,2.17
2022-11-17T03:23:19.464Z,2.19
2022-11-17T03:28:25.216Z,2.23
2022-11-17T03:33:28.131Z,2.26
2022-11-17T03:38:35.719Z,2.24
2022-11-17T03:43:41.025Z,2.16
2022-11-17T03:49:21.265Z,2.15
2022-11-17T03:54:24.581Z,2.10
2022-11-17T03:59:57.110Z,2.08
2022-11-17T04:05:06.342Z,2.05
2022-11-17T04:10:19.440Z,2.06
2022-11-17T04:15:41.752Z,2.03
2022-11-17T04:20:45.854Z,1.97
2022-11-17T04:26:12.681Z,1.99
2022-11-17T04:31:28.202Z,2.02
2022-11-17T04:36:46.917Z,2.04
2022-11-17T04:41:57.679Z,2.00
2022-11-17T04:47:04.298Z,2.01
2022-11-17T04:52:07.192Z,2.01
2022-11-17T04:57:10.019Z,2.05
2022-11-17T05:02:13.057Z,2.00
2022-11-17T05:07:16.383Z,2.02
2022-11-17T05:12:38.513Z,2.04
2022-11-17T05:17:41.361Z,2.02
2022-11-17T05:23:06.896Z,1.98
2022-11-17T05:28:10.813Z,1.95
2022-11-17T05:33:14.901Z,1.95
2022-11-17T05:38:18.037Z,1.94
2022-11-17T05:43:21.081Z,1.91
2022-11-17T05:48:24.104Z,1.92
2022-11-17T05:53:28.470Z,1.90
2022-11-17T05:58:33.554Z,1.86
2022-11-17T06:03:40.502Z,1.81
2022-11-17T06:08:43.400Z,1.80
2022-11-17T06:13:46.936Z,1.82
2022-11-17T06:18:55.683Z,1.84
2022-11-17T06:24:00.332Z,1.83
2022-11-17T06:29:04.015Z,1.84
2022-11-17T06:34:06.914Z,1.85
2022-11-17T06:39:09.725Z,1.83
2022-11-17T06:44:12.908Z,1.80
2022-11-17T06:49:15.775Z,1.78
2022-11-17T06:54:19.875Z,1.80
2022-11-17T06:59:22.918Z,1.79
2022-11-17T07:04:25.964Z,1.76
2022-11-17T07:09:29.163Z,1.68
2022-11-17T07:14:32.230Z,1.62
2022-11-17T07:19:35.281Z,1.62
2022-11-17T07:24:38.203Z,1.63
2022-11-17T07:29:41.788Z,1.61
2022-11-17T07:34:46.037Z,1.54
2022-11-17T07:39:48.936Z,1.47
2022-11-17T07:44:52.151Z,1.45
2022-11-17T07:49:55.553Z,1.43
2022-11-17T07:54:58.588Z,1.39
2022-11-17T08:00:02.226Z,1.40
2022-11-17T08:05:08.886Z,1.43
2022-11-17T08:10:13.604Z,1.50
2022-11-17T08:15:16.606Z,1.54
2022-11-17T08:20:19.458Z,1.55
2022-11-17T08:25:25.160Z,1.56
2022-11-17T08:30:28.766Z,1.54
2022-11-17T08:35:37.292Z,1.61
2022-11-17T08:40:41.443Z,1.69
2022-11-17T08:46:05.712Z,1.76
2022-11-17T08:51:12.073Z,1.72
2022-11-17T08:56:15.688Z,1.70
2022-11-17T09:01:18.935Z,1.69
2022-11-17T09:07:52.640Z,1.70
2022-11-17T09:13:38.668Z,1.69
2022-11-17T09:18:42.015Z,1.70
2022-11-17T09:31:30.207Z,1.69
2022-11-17T10:11:51.941Z,1.57
2022-11-17T10:24:57.971Z,1.49
2022-11-17T10:30:14.590Z,1.57
2022-11-17T10:35:37.213Z,1.56
2022-11-17T10:40:41.382Z,1.60
2022-11-17T10:45:48.409Z,1.63
2022-11-17T10:51:04.309Z,1.63
2022-11-17T10:56:16.416Z,1.61
2022-11-17T11:01:32.655Z,1.64
2022-11-17T11:06:36.153Z,1.67
2022-11-17T11:11:48.589Z,1.69
2022-11-17T11:16:51.678Z,1.76
2022-11-17T11:22:16.958Z,1.82
2022-11-17T11:27:47.523Z,1.88
2022-11-17T11:33:41.427Z,1.88
2022-11-17T11:39:04.640Z,1.93
2022-11-17T11:44:41.239Z,2.04
2022-11-17T11:49:57.560Z,2.05
2022-11-17T11:55:31.819Z,2.11
2022-11-17T12:00:34.787Z,2.08
2022-11-17T12:06:40.622Z,2.01
2022-11-17T12:12:02.084Z,1.98
2022-11-17T12:17:13.912Z,1.99
2022-11-17T12:22:29.441Z,1.98
2022-11-17T12:27:43.861Z,1.97
2022-11-17T12:32:53.117Z,1.97
2022-11-17T12:38:14.390Z,1.90
2022-11-17T12:43:25.507Z,1.74
2022-11-17T12:48:36.937Z,1.64
2022-11-17T12:54:08.206Z,1.68
2022-11-17T12:59:30.109Z,1.89
2022-11-17T13:04:52.292Z,2.14
2022-11-17T13:09:59.094Z,2.35
2022-11-17T13:15:05.246Z,2.48
2022-11-17T13:20:29.756Z,2.59
2022-11-17T13:25:34.245Z,2.67
2022-11-17T13:30:37.592Z,2.79
2022-11-17T13:35:41.653Z,2.80
2022-11-17T13:40:59.611Z,2.81
2022-11-17T13:46:04.393Z,2.75
2022-11-17T13:51:28.078Z,2.71
2022-11-17T13:56:39.495Z,2.56
2022-11-17T14:01:42.525Z,2.45
2022-11-17T14:06:54.442Z,2.36
2022-11-17T14:12:01.897Z,2.25
2022-11-17T14:17:20.988Z,2.12
2022-11-17T14:22:31.322Z,2.04
2022-11-17T14:27:36.266Z,1.94
2022-11-17T14:32:40.459Z,1.71
2022-11-17T14:37:44.745Z,1.51
2022-11-17T14:42:48.178Z,1.41
2022-11-17T14:47:51.334Z,1.36
2022-11-17T14:52:54.435Z,1.28
2022-11-17T14:57:57.497Z,1.17
2022-11-17T15:03:00.425Z,1.05
2022-11-17T15:08:05.041Z,0.90
2022-11-17T15:13:08.455Z,0.82
2022-11-17T15:18:14.033Z,0.71
2022-11-17T15:23:17.084Z,0.41
2022-11-17T15:28:23.048Z,0.03
2022-11-17T15:33:26.229Z,-0.30
2022-11-17T15:38:30.780Z,-0.54
2022-11-17T15:43:37.301Z,-0.76
2022-11-17T15:48:44.565Z,-0.98
2022-11-17T15:53:48.057Z,-1.10
2022-11-17T15:59:01.935Z,-1.17
2022-11-17T16:04:10.805Z,-1.24
2022-11-17T16:09:14.054Z,-1.26
2022-11-17T16:14:17.477Z,-1.28
2022-11-17T16:19:22.382Z,-1.20
2022-11-17T16:24:25.318Z,-1.09
2022-11-17T16:29:28.246Z,-0.99
2022-11-17T16:34:31.190Z,-0.86
2022-11-17T16:39:34.051Z,-0.82
2022-11-17T16:44:37.021Z,-0.82
2022-11-17T16:49:39.952Z,-0.79
2022-11-17T16:54:43.249Z,-0.77
2022-11-17T16:59:46.217Z,-0.71
2022-11-17T17:04:50.511Z,-0.63
2022-11-17T17:09:53.564Z,-0.53
2022-11-17T17:14:56.590Z,-0.40
2022-11-17T17:19:59.662Z,-0.28
2022-11-17T17:25:03.853Z,-0.20
2022-11-17T17:30:08.910Z,-0.18
2022-11-17T17:35:11.765Z,-0.16
2022-11-17T17:40:14.843Z,-0.13
2022-11-17T17:45:17.909Z,-0.14
2022-11-17T17:50:20.796Z,-0.09
2022-11-17T17:55:25.257Z,-0.05
2022-11-17T18:00:31.592Z,-0.06
2022-11-17T18:05:35.788Z,-0.03
2022-11-17T18:10:38.874Z,-0.01
2022-11-17T18:15:42.419Z,-0.06
2022-11-17T18:20:46.521Z,-0.26
2022-11-17T18:25:49.439Z,-0.30
2022-11-17T18:30:53.205Z,-0.23
2022-11-17T18:36:07.037Z,-0.17
2022-11-17T18:41:12.685Z,-0.11
2022-11-17T18:46:18.528Z,-0.08
2022-11-17T18:51:28.270Z,-0.08
2022-11-17T18:56:34.484Z,-0.08
2022-11-17T19:01:39.131Z,-0.15
2022-11-17T19:06:44.161Z,-0.10
2022-11-17T19:11:47.101Z,-0.10
2022-11-17T19:16:50.963Z,-0.14
2022-11-17T19:21:53.914Z,-0.08
2022-11-17T19:26:56.901Z,-0.07
2022-11-17T19:32:00.243Z,-0.09
2022-11-17T19:37:05.537Z,-0.11
2022-11-17T19:42:10.076Z,-0.05
2022-11-17T19:47:13.384Z,0.05
2022-11-17T19:52:16.965Z,0.03
2022-11-17T19:57:20.026Z,-0.00
2022-11-17T20:02:22.918Z,-0.13
2022-11-17T20:07:26.305Z,-0.21
2022-11-17T20:12:29.289Z,-0.25
2022-11-17T20:17:34.959Z,-0.36
2022-11-17T20:22:42.329Z,-0.52
2022-11-17T20:27:45.882Z,-0.58
2022-11-17T20:32:48.761Z,-0.60
2022-11-17T20:37:51.684Z,-0.63
2022-11-17T20:42:54.575Z,-0.62
2022-11-17T20:47:57.887Z,-0.61
2022-11-17T20:53:03.184Z,-0.65
2022-11-17T20:58:06.080Z,-0.74
2022-11-17T21:03:09.153Z,-0.88
2022-11-17T21:08:12.190Z,-1.04
2022-11-17T21:13:15.078Z,-1.20
2022-11-17T21:18:23.932Z,-1.25
2022-11-17T21:23:27.941Z,-1.29
2022-11-17T21:28:31.280Z,-1.31
2022-11-17T21:33:35.700Z,-1.35
2022-11-17T21:38:38.742Z,-1.46
2022-11-17T21:43:45.047Z,-1.56
2022-11-17T21:48:48.356Z,-1.66
2022-11-17T21:53:56.639Z,-1.69
2022-11-17T21:59:02.111Z,-1.68
2022-11-17T22:04:05.140Z,-1.79
2022-11-17T22:09:08.158Z,-1.90
2022-11-17T22:14:16.353Z,-2.01
2022-11-17T22:19:22.302Z,-2.11
2022-11-17T22:24:25.232Z,-2.07
2022-11-17T22:29:29.209Z,-1.99
2022-11-17T22:34:32.054Z,-1.95
2022-11-17T22:39:34.912Z,-2.00
2022-11-17T22:44:37.776Z,-2.11
2022-11-17T22:49:40.710Z,-2.20
2022-11-17T22:54:43.541Z,-2.20
2022-11-17T22:59:46.552Z,-2.14
2022-11-17T23:04:49.438Z,-2.09
2022-11-17T23:09:52.291Z,-2.09
2022-11-17T23:14:55.268Z,-2.05
2022-11-17T23:19:58.547Z,-1.87
2022-11-17T23:25:02.552Z,-1.65
2022-11-17T23:30:06.958Z,-1.44
2022-11-17T23:35:10.402Z,-1.34
2022-11-17T23:40:13.645Z,-1.31
2022-11-17T23:45:17.045Z,-1.28
2022-11-17T23:50:19.999Z,-1.15
2022-11-17T23:55:22.890Z,-1.14
